Hualapai, Arizona
Current Conditions -  °F | °C
As of 8:54 PM on Tuesday 25 Nov 2014 (Local Time) from KGCN Reporting Station
Clear Clear  
Wind Chill: 18°   Ceiling: Unl
Heat Index: 24°   Visibility: 10mi
Dew Point:   Wind: 5mph
Humidity: 44%   Direction: 50°NE
Pressure: 30.44"   Gusts: NA
Location:  35.9°N, 113.11°W
Report Text: KGCN 260354Z AUTO 05004KT 10SM CLR M04/M15 A3044 RMK AO2 SLP336 T10441150
Loading
Personal Weather Stations






























Interactive Weather Map New forecast layout! Learn more

10-Day Weather Forecast

Advertisements
Track Severe Weather on mobile